메인 페이지
METAR-TAF:

METAR-TAF

공항 :

브루나이 국제공항

브루나이, 브루나이

위도: 04-56N, 경도: 114-56E, 고도: 22m

현재 날씨관측

예보는 14분 전, 15:30시(UTC)에 발표되었습니다.
북동3kt
온도 27°C
습도 94%
기압 1010 hPa
시정: 7000m
고도 1500ft 상공 구름 조금
고도 1600ft 상공 구름 조금, 적란운.
고도 2000ft 상공 구름 보통
고도 14000ft 상공 구름 많음
뇌우, 약한비

METAR: WBSB 191530Z 04003KT 7000 -TSRA FEW015 FEW016CB SCT020 BKN140 27/26 Q1010 TEMPO 5000 -SHRA

시각: 23:44 (15:44 UTC)

예보

예보는 4 시간 44분 전, 11:00시(UTC)에 발표되었습니다.
예보 대상 시간: 19일 12시부터 20일 18시까지 (UTC)
동북동5kt
시정: 7000m
고도 1500ft 상공 구름 조금
고도 1600ft 상공 구름 조금, 적란운.
확률 40% :
일시적
19일 20시부터 20일 00시까지 (UTC)
시정: 5000m
고도 1400ft 상공 구름 보통
고도 1500ft 상공 구름 조금, 적란운.
뇌우, 약한비
전환 중
19일 20시부터 19일 22시까지 (UTC)
남남동3kt
고도 1400ft 상공 구름 조금

TAF: WBSB 191100Z 1912/2018 06005KT 7000 FEW015 FEW016CB PROB40 TEMPO 1920/2000 5000 -TSRA SCT014 FEW015CB BECMG 1920/1922 16003KT FEW014

4,000개 이상의 공항 관측 자료 및 예보 (METAR 및 TAF 보고).

지도상에서 검색 가능한 기상관측소가 노란 점과 빨간 점으로 표시되어 있습니다.

기상관측소 명을 보려면 표시 위로 마우스를 이동하세요.

날씨 관측과 예보를 보려면 클릭하세요.

지도 변경 : 확대하려면 엑스 표시가 있는 녹색 버튼, 축소하려면 빼기 표시가 있는 녹색 버튼, 다음 페이지의 지도를 보려면 녹색 화살표를 클릭하세요.


METAR-TAF: